sensor_id;sensor_type;location;lat;lon;timestamp;temperature;humidity
39277;DHT22;24981;48.086;-1.686;2022-07-23T00:00:14;16.70;99.90
39277;DHT22;24981;48.086;-1.686;2022-07-23T00:02:41;16.70;99.90
39277;DHT22;24981;48.086;-1.686;2022-07-23T00:05:09;16.70;99.90
39277;DHT22;24981;48.086;-1.686;2022-07-23T00:07:37;16.60;99.90
39277;DHT22;24981;48.086;-1.686;2022-07-23T00:10:06;16.60;99.90
39277;DHT22;24981;48.086;-1.686;2022-07-23T00:12:34;16.60;99.90
39277;DHT22;24981;48.086;-1.686;2022-07-23T00:15:01;16.60;99.90
39277;DHT22;24981;48.086;-1.686;2022-07-23T00:17:29;16.50;99.90
39277;DHT22;24981;48.086;-1.686;2022-07-23T00:19:56;16.40;99.90
39277;DHT22;24981;48.086;-1.686;2022-07-23T00:22:23;16.40;99.90
39277;DHT22;24981;48.086;-1.686;2022-07-23T00:24:51;16.20;99.90
39277;DHT22;24981;48.086;-1.686;2022-07-23T00:27:19;16.20;99.90
39277;DHT22;24981;48.086;-1.686;2022-07-23T00:29:47;16.10;99.90
39277;DHT22;24981;48.086;-1.686;2022-07-23T00:32:14;16.10;99.90
39277;DHT22;24981;48.086;-1.686;2022-07-23T00:34:41;16.00;99.90
39277;DHT22;24981;48.086;-1.686;2022-07-23T00:37:09;15.90;99.90
39277;DHT22;24981;48.086;-1.686;2022-07-23T00:39:36;15.90;99.90
39277;DHT22;24981;48.086;-1.686;2022-07-23T00:42:03;15.80;99.90
39277;DHT22;24981;48.086;-1.686;2022-07-23T00:44:32;15.90;99.90
39277;DHT22;24981;48.086;-1.686;2022-07-23T00:46:59;15.80;99.90
39277;DHT22;24981;48.086;-1.686;2022-07-23T00:49:28;15.80;99.90
39277;DHT22;24981;48.086;-1.686;2022-07-23T00:51:56;15.80;99.90
39277;DHT22;24981;48.086;-1.686;2022-07-23T00:54:26;15.80;99.90
39277;DHT22;24981;48.086;-1.686;2022-07-23T00:56:54;15.80;99.90
39277;DHT22;24981;48.086;-1.686;2022-07-23T00:59:21;15.80;99.90
39277;DHT22;24981;48.086;-1.686;2022-07-23T01:01:50;15.80;99.90
39277;DHT22;24981;48.086;-1.686;2022-07-23T01:04:17;15.80;99.90
39277;DHT22;24981;48.086;-1.686;2022-07-23T01:06:46;15.80;99.90
39277;DHT22;24981;48.086;-1.686;2022-07-23T01:09:13;15.80;99.90
39277;DHT22;24981;48.086;-1.686;2022-07-23T01:11:41;15.80;99.90
39277;DHT22;24981;48.086;-1.686;2022-07-23T01:14:13;15.70;99.90
39277;DHT22;24981;48.086;-1.686;2022-07-23T01:16:41;15.70;99.90
39277;DHT22;24981;48.086;-1.686;2022-07-23T01:19:10;15.70;99.90
39277;DHT22;24981;48.086;-1.686;2022-07-23T01:21:38;15.60;99.90
39277;DHT22;24981;48.086;-1.686;2022-07-23T01:24:08;15.60;99.90
39277;DHT22;24981;48.086;-1.686;2022-07-23T01:26:36;15.60;99.90
39277;DHT22;24981;48.086;-1.686;2022-07-23T01:29:04;15.70;99.90
39277;DHT22;24981;48.086;-1.686;2022-07-23T01:31:32;15.60;99.90
39277;DHT22;24981;48.086;-1.686;2022-07-23T01:33:59;15.60;99.90
39277;DHT22;24981;48.086;-1.686;2022-07-23T01:36:26;15.60;99.90
39277;DHT22;24981;48.086;-1.686;2022-07-23T01:38:54;15.60;99.90
39277;DHT22;24981;48.086;-1.686;2022-07-23T01:41:22;15.50;99.90
39277;DHT22;24981;48.086;-1.686;2022-07-23T01:43:50;15.60;99.90
39277;DHT22;24981;48.086;-1.686;2022-07-23T01:46:17;15.50;99.90
39277;DHT22;24981;48.086;-1.686;2022-07-23T01:48:45;15.50;99.90
39277;DHT22;24981;48.086;-1.686;2022-07-23T01:51:12;15.50;99.90
39277;DHT22;24981;48.086;-1.686;2022-07-23T01:53:39;15.40;99.90
39277;DHT22;24981;48.086;-1.686;2022-07-23T01:56:07;15.40;99.90
39277;DHT22;24981;48.086;-1.686;2022-07-23T01:58:36;15.40;99.90
39277;DHT22;24981;48.086;-1.686;2022-07-23T02:01:03;15.30;99.90
39277;DHT22;24981;48.086;-1.686;2022-07-23T02:03:30;15.30;99.90
39277;DHT22;24981;48.086;-1.686;2022-07-23T02:05:58;15.20;99.90
39277;DHT22;24981;48.086;-1.686;2022-07-23T02:08:25;15.10;99.90
39277;DHT22;24981;48.086;-1.686;2022-07-23T02:10:52;15.10;99.90
39277;DHT22;24981;48.086;-1.686;2022-07-23T02:13:19;15.00;99.90
39277;DHT22;24981;48.086;-1.686;2022-07-23T02:15:48;15.10;99.90
39277;DHT22;24981;48.086;-1.686;2022-07-23T02:18:15;15.00;99.90
39277;DHT22;24981;48.086;-1.686;2022-07-23T02:20:43;15.00;99.90
39277;DHT22;24981;48.086;-1.686;2022-07-23T02:23:10;15.10;99.90
39277;DHT22;24981;48.086;-1.686;2022-07-23T02:25:38;15.10;99.90
39277;DHT22;24981;48.086;-1.686;2022-07-23T02:28:05;15.10;99.90
39277;DHT22;24981;48.086;-1.686;2022-07-23T02:30:32;15.20;99.90
39277;DHT22;24981;48.086;-1.686;2022-07-23T02:33:01;15.20;99.90
39277;DHT22;24981;48.086;-1.686;2022-07-23T02:35:28;15.20;99.90
39277;DHT22;24981;48.086;-1.686;2022-07-23T02:37:56;15.20;99.90
39277;DHT22;24981;48.086;-1.686;2022-07-23T02:40:23;15.20;99.90
39277;DHT22;24981;48.086;-1.686;2022-07-23T02:42:50;15.20;99.90
39277;DHT22;24981;48.086;-1.686;2022-07-23T02:45:17;15.20;99.90
39277;DHT22;24981;48.086;-1.686;2022-07-23T02:47:45;15.20;99.90
39277;DHT22;24981;48.086;-1.686;2022-07-23T02:50:13;15.20;99.90
39277;DHT22;24981;48.086;-1.686;2022-07-23T02:52:41;15.20;99.90
39277;DHT22;24981;48.086;-1.686;2022-07-23T02:55:08;15.20;99.90
39277;DHT22;24981;48.086;-1.686;2022-07-23T02:57:36;15.20;99.90
39277;DHT22;24981;48.086;-1.686;2022-07-23T03:00:05;15.20;99.90
39277;DHT22;24981;48.086;-1.686;2022-07-23T03:02:33;15.10;99.90
39277;DHT22;24981;48.086;-1.686;2022-07-23T03:05:00;15.10;99.90
39277;DHT22;24981;48.086;-1.686;2022-07-23T03:07:29;15.10;99.90
39277;DHT22;24981;48.086;-1.686;2022-07-23T03:09:56;15.20;99.90
39277;DHT22;24981;48.086;-1.686;2022-07-23T03:12:24;15.20;99.90
39277;DHT22;24981;48.086;-1.686;2022-07-23T03:14:51;15.20;99.90
39277;DHT22;24981;48.086;-1.686;2022-07-23T03:17:18;15.10;99.90
39277;DHT22;24981;48.086;-1.686;2022-07-23T03:19:46;15.10;99.90
39277;DHT22;24981;48.086;-1.686;2022-07-23T03:22:13;15.10;99.90
39277;DHT22;24981;48.086;-1.686;2022-07-23T03:24:42;15.00;99.90
39277;DHT22;24981;48.086;-1.686;2022-07-23T03:27:24;15.00;99.90
39277;DHT22;24981;48.086;-1.686;2022-07-23T03:29:52;15.00;99.90
39277;DHT22;24981;48.086;-1.686;2022-07-23T03:32:20;15.00;99.90
39277;DHT22;24981;48.086;-1.686;2022-07-23T03:34:48;15.00;99.90
39277;DHT22;24981;48.086;-1.686;2022-07-23T03:37:16;15.00;99.90
39277;DHT22;24981;48.086;-1.686;2022-07-23T03:39:45;15.00;99.90
39277;DHT22;24981;48.086;-1.686;2022-07-23T03:42:12;15.00;99.90
39277;DHT22;24981;48.086;-1.686;2022-07-23T03:44:40;15.00;99.90
39277;DHT22;24981;48.086;-1.686;2022-07-23T03:47:07;14.90;99.90
39277;DHT22;24981;48.086;-1.686;2022-07-23T03:49:34;14.90;99.90
39277;DHT22;24981;48.086;-1.686;2022-07-23T03:52:02;14.80;99.90
39277;DHT22;24981;48.086;-1.686;2022-07-23T03:54:29;14.80;99.90
39277;DHT22;24981;48.086;-1.686;2022-07-23T03:56:58;14.80;99.90
39277;DHT22;24981;48.086;-1.686;2022-07-23T03:59:25;14.70;99.90
39277;DHT22;24981;48.086;-1.686;2022-07-23T04:01:53;14.70;99.90
39277;DHT22;24981;48.086;-1.686;2022-07-23T04:04:20;14.70;99.90
39277;DHT22;24981;48.086;-1.686;2022-07-23T04:06:47;14.60;99.90
39277;DHT22;24981;48.086;-1.686;2022-07-23T04:09:15;14.60;99.90
39277;DHT22;24981;48.086;-1.686;2022-07-23T04:11:42;14.50;99.90
39277;DHT22;24981;48.086;-1.686;2022-07-23T04:14:11;14.50;99.90
39277;DHT22;24981;48.086;-1.686;2022-07-23T04:16:38;14.50;99.90
39277;DHT22;24981;48.086;-1.686;2022-07-23T04:19:05;14.50;99.90
39277;DHT22;24981;48.086;-1.686;2022-07-23T04:21:33;14.40;99.90
39277;DHT22;24981;48.086;-1.686;2022-07-23T04:24:00;14.30;99.90
39277;DHT22;24981;48.086;-1.686;2022-07-23T04:26:27;14.30;99.90
39277;DHT22;24981;48.086;-1.686;2022-07-23T04:28:54;14.20;99.90
39277;DHT22;24981;48.086;-1.686;2022-07-23T04:31:23;14.20;99.90
39277;DHT22;24981;48.086;-1.686;2022-07-23T04:33:50;14.10;99.90
39277;DHT22;24981;48.086;-1.686;2022-07-23T04:36:18;14.10;99.90
39277;DHT22;24981;48.086;-1.686;2022-07-23T04:38:45;14.10;99.90
39277;DHT22;24981;48.086;-1.686;2022-07-23T04:41:13;14.10;99.90
39277;DHT22;24981;48.086;-1.686;2022-07-23T04:43:40;14.10;99.90
39277;DHT22;24981;48.086;-1.686;2022-07-23T04:46:07;14.00;99.90
39277;DHT22;24981;48.086;-1.686;2022-07-23T04:48:38;14.00;99.90
39277;DHT22;24981;48.086;-1.686;2022-07-23T04:51:05;14.10;99.90
39277;DHT22;24981;48.086;-1.686;2022-07-23T04:53:33;14.10;99.90
39277;DHT22;24981;48.086;-1.686;2022-07-23T04:56:00;14.10;99.90
39277;DHT22;24981;48.086;-1.686;2022-07-23T04:58:27;14.00;99.90
39277;DHT22;24981;48.086;-1.686;2022-07-23T05:00:55;14.00;99.90
39277;DHT22;24981;48.086;-1.686;2022-07-23T05:03:23;13.90;99.90
39277;DHT22;24981;48.086;-1.686;2022-07-23T05:05:52;14.00;99.90
39277;DHT22;24981;48.086;-1.686;2022-07-23T05:08:19;14.00;99.90
39277;DHT22;24981;48.086;-1.686;2022-07-23T05:10:47;14.00;99.90
39277;DHT22;24981;48.086;-1.686;2022-07-23T05:13:14;14.00;99.90
39277;DHT22;24981;48.086;-1.686;2022-07-23T05:15:42;14.00;99.90
39277;DHT22;24981;48.086;-1.686;2022-07-23T05:18:09;14.10;99.90
39277;DHT22;24981;48.086;-1.686;2022-07-23T05:20:37;14.10;99.90
39277;DHT22;24981;48.086;-1.686;2022-07-23T05:23:06;14.20;99.90
39277;DHT22;24981;48.086;-1.686;2022-07-23T05:25:33;14.10;99.90
39277;DHT22;24981;48.086;-1.686;2022-07-23T05:28:01;14.10;99.90
39277;DHT22;24981;48.086;-1.686;2022-07-23T05:30:28;14.10;99.90
39277;DHT22;24981;48.086;-1.686;2022-07-23T05:32:55;14.20;99.90
39277;DHT22;24981;48.086;-1.686;2022-07-23T05:35:23;14.20;99.90
39277;DHT22;24981;48.086;-1.686;2022-07-23T05:37:50;14.20;99.90
39277;DHT22;24981;48.086;-1.686;2022-07-23T05:40:20;14.20;99.90
39277;DHT22;24981;48.086;-1.686;2022-07-23T05:42:47;14.30;99.90
39277;DHT22;24981;48.086;-1.686;2022-07-23T05:45:15;14.30;99.90
39277;DHT22;24981;48.086;-1.686;2022-07-23T05:47:43;14.40;99.90
39277;DHT22;24981;48.086;-1.686;2022-07-23T05:50:13;14.40;99.90
39277;DHT22;24981;48.086;-1.686;2022-07-23T05:52:40;14.50;99.90
39277;DHT22;24981;48.086;-1.686;2022-07-23T05:55:09;14.50;99.90
39277;DHT22;24981;48.086;-1.686;2022-07-23T05:57:39;14.50;99.90
39277;DHT22;24981;48.086;-1.686;2022-07-23T06:00:08;14.50;99.90
39277;DHT22;24981;48.086;-1.686;2022-07-23T06:02:37;14.60;99.90
39277;DHT22;24981;48.086;-1.686;2022-07-23T06:05:05;14.60;99.90
39277;DHT22;24981;48.086;-1.686;2022-07-23T06:07:34;14.70;99.90
39277;DHT22;24981;48.086;-1.686;2022-07-23T06:10:01;14.80;99.90
39277;DHT22;24981;48.086;-1.686;2022-07-23T06:12:29;14.90;99.90
39277;DHT22;24981;48.086;-1.686;2022-07-23T06:14:58;15.00;99.90
39277;DHT22;24981;48.086;-1.686;2022-07-23T06:17:26;15.10;99.90
39277;DHT22;24981;48.086;-1.686;2022-07-23T06:19:53;15.20;99.90
39277;DHT22;24981;48.086;-1.686;2022-07-23T06:22:21;15.30;99.90
39277;DHT22;24981;48.086;-1.686;2022-07-23T06:24:49;15.30;99.90
39277;DHT22;24981;48.086;-1.686;2022-07-23T06:27:17;15.40;99.90
39277;DHT22;24981;48.086;-1.686;2022-07-23T06:29:45;15.50;99.90
39277;DHT22;24981;48.086;-1.686;2022-07-23T06:32:14;15.50;99.90
39277;DHT22;24981;48.086;-1.686;2022-07-23T06:34:41;15.70;99.90
39277;DHT22;24981;48.086;-1.686;2022-07-23T06:37:08;15.70;99.90
39277;DHT22;24981;48.086;-1.686;2022-07-23T06:39:36;15.80;99.90
39277;DHT22;24981;48.086;-1.686;2022-07-23T06:42:03;15.90;99.90
39277;DHT22;24981;48.086;-1.686;2022-07-23T06:44:30;16.00;99.90
39277;DHT22;24981;48.086;-1.686;2022-07-23T06:46:58;16.10;99.90
39277;DHT22;24981;48.086;-1.686;2022-07-23T06:49:27;16.20;99.90
39277;DHT22;24981;48.086;-1.686;2022-07-23T06:51:54;16.20;99.90
39277;DHT22;24981;48.086;-1.686;2022-07-23T06:54:21;16.20;99.90
39277;DHT22;24981;48.086;-1.686;2022-07-23T06:56:48;16.20;99.90
39277;DHT22;24981;48.086;-1.686;2022-07-23T06:59:16;16.30;99.90
39277;DHT22;24981;48.086;-1.686;2022-07-23T07:01:43;16.40;99.90
39277;DHT22;24981;48.086;-1.686;2022-07-23T07:04:10;16.40;99.90
39277;DHT22;24981;48.086;-1.686;2022-07-23T07:06:39;16.40;99.90
39277;DHT22;24981;48.086;-1.686;2022-07-23T07:09:07;16.50;99.90
39277;DHT22;24981;48.086;-1.686;2022-07-23T07:11:34;16.60;99.90
39277;DHT22;24981;48.086;-1.686;2022-07-23T07:14:01;16.60;99.90
39277;DHT22;24981;48.086;-1.686;2022-07-23T07:16:30;16.70;99.90
39277;DHT22;24981;48.086;-1.686;2022-07-23T07:18:57;16.70;99.90
39277;DHT22;24981;48.086;-1.686;2022-07-23T07:21:25;16.70;99.90
39277;DHT22;24981;48.086;-1.686;2022-07-23T07:23:53;16.80;99.90
39277;DHT22;24981;48.086;-1.686;2022-07-23T07:26:21;16.90;99.90
39277;DHT22;24981;48.086;-1.686;2022-07-23T07:28:48;16.90;99.90
39277;DHT22;24981;48.086;-1.686;2022-07-23T07:31:15;17.00;99.90
39277;DHT22;24981;48.086;-1.686;2022-07-23T07:33:43;17.00;99.90
39277;DHT22;24981;48.086;-1.686;2022-07-23T07:36:10;17.00;99.90
39277;DHT22;24981;48.086;-1.686;2022-07-23T07:38:38;17.20;99.90
39277;DHT22;24981;48.086;-1.686;2022-07-23T07:41:06;17.20;99.90
39277;DHT22;24981;48.086;-1.686;2022-07-23T07:43:36;17.20;99.90
39277;DHT22;24981;48.086;-1.686;2022-07-23T07:46:03;17.20;99.90
39277;DHT22;24981;48.086;-1.686;2022-07-23T07:48:31;17.30;99.90
39277;DHT22;24981;48.086;-1.686;2022-07-23T07:50:58;17.40;99.90
39277;DHT22;24981;48.086;-1.686;2022-07-23T07:53:25;17.40;99.90
39277;DHT22;24981;48.086;-1.686;2022-07-23T07:55:53;17.50;99.90
39277;DHT22;24981;48.086;-1.686;2022-07-23T07:58:21;17.60;99.90
39277;DHT22;24981;48.086;-1.686;2022-07-23T08:00:49;17.70;99.90
39277;DHT22;24981;48.086;-1.686;2022-07-23T08:03:17;17.90;99.90
39277;DHT22;24981;48.086;-1.686;2022-07-23T08:05:44;18.00;99.90
39277;DHT22;24981;48.086;-1.686;2022-07-23T08:08:12;18.10;99.90
39277;DHT22;24981;48.086;-1.686;2022-07-23T08:10:41;18.10;99.90
39277;DHT22;24981;48.086;-1.686;2022-07-23T08:13:13;18.10;99.90
39277;DHT22;24981;48.086;-1.686;2022-07-23T08:15:43;18.10;99.90
39277;DHT22;24981;48.086;-1.686;2022-07-23T08:18:10;18.20;99.90
39277;DHT22;24981;48.086;-1.686;2022-07-23T08:20:38;18.20;99.90
39277;DHT22;24981;48.086;-1.686;2022-07-23T08:23:07;18.30;99.90
39277;DHT22;24981;48.086;-1.686;2022-07-23T08:25:36;18.30;99.90
39277;DHT22;24981;48.086;-1.686;2022-07-23T08:28:07;18.50;99.90
39277;DHT22;24981;48.086;-1.686;2022-07-23T08:30:35;18.60;99.90
39277;DHT22;24981;48.086;-1.686;2022-07-23T08:33:06;18.70;99.90
39277;DHT22;24981;48.086;-1.686;2022-07-23T08:35:40;18.80;99.90
39277;DHT22;24981;48.086;-1.686;2022-07-23T08:38:10;19.00;99.90
39277;DHT22;24981;48.086;-1.686;2022-07-23T08:40:41;19.00;99.90
39277;DHT22;24981;48.086;-1.686;2022-07-23T08:43:10;18.90;99.90
39277;DHT22;24981;48.086;-1.686;2022-07-23T08:45:40;18.90;99.90
39277;DHT22;24981;48.086;-1.686;2022-07-23T08:48:12;18.80;99.90
39277;DHT22;24981;48.086;-1.686;2022-07-23T08:50:43;19.00;99.90
39277;DHT22;24981;48.086;-1.686;2022-07-23T08:53:11;19.10;99.90
39277;DHT22;24981;48.086;-1.686;2022-07-23T08:55:39;19.20;99.90
39277;DHT22;24981;48.086;-1.686;2022-07-23T08:58:06;19.30;99.90
39277;DHT22;24981;48.086;-1.686;2022-07-23T09:00:33;19.50;99.90
39277;DHT22;24981;48.086;-1.686;2022-07-23T09:03:01;19.50;99.90
39277;DHT22;24981;48.086;-1.686;2022-07-23T09:05:29;19.50;99.90
39277;DHT22;24981;48.086;-1.686;2022-07-23T09:08:12;19.50;99.90
39277;DHT22;24981;48.086;-1.686;2022-07-23T09:10:55;19.50;99.90
39277;DHT22;24981;48.086;-1.686;2022-07-23T09:13:26;19.50;99.90
39277;DHT22;24981;48.086;-1.686;2022-07-23T09:15:56;19.70;99.90
39277;DHT22;24981;48.086;-1.686;2022-07-23T09:18:40;19.70;99.90
39277;DHT22;24981;48.086;-1.686;2022-07-23T09:21:19;20.10;99.90
39277;DHT22;24981;48.086;-1.686;2022-07-23T09:23:51;20.40;99.90
39277;DHT22;24981;48.086;-1.686;2022-07-23T09:26:25;20.60;99.90
39277;DHT22;24981;48.086;-1.686;2022-07-23T09:28:58;20.80;99.90
39277;DHT22;24981;48.086;-1.686;2022-07-23T09:31:32;20.90;99.90
39277;DHT22;24981;48.086;-1.686;2022-07-23T09:34:16;21.00;99.90
39277;DHT22;24981;48.086;-1.686;2022-07-23T09:36:46;20.70;99.90
39277;DHT22;24981;48.086;-1.686;2022-07-23T09:39:15;20.60;99.90
39277;DHT22;24981;48.086;-1.686;2022-07-23T09:41:46;20.60;99.90
39277;DHT22;24981;48.086;-1.686;2022-07-23T09:44:16;20.60;99.90
39277;DHT22;24981;48.086;-1.686;2022-07-23T09:46:45;20.70;99.90
39277;DHT22;24981;48.086;-1.686;2022-07-23T09:49:16;20.70;99.90
39277;DHT22;24981;48.086;-1.686;2022-07-23T09:51:48;20.80;99.90
39277;DHT22;24981;48.086;-1.686;2022-07-23T09:54:32;21.00;99.90
39277;DHT22;24981;48.086;-1.686;2022-07-23T09:57:04;21.00;99.90
39277;DHT22;24981;48.086;-1.686;2022-07-23T09:59:36;21.00;99.90
39277;DHT22;24981;48.086;-1.686;2022-07-23T10:02:05;20.90;99.90
39277;DHT22;24981;48.086;-1.686;2022-07-23T10:04:34;21.00;99.90
39277;DHT22;24981;48.086;-1.686;2022-07-23T10:07:06;20.90;99.90
39277;DHT22;24981;48.086;-1.686;2022-07-23T10:09:35;21.10;99.90
39277;DHT22;24981;48.086;-1.686;2022-07-23T10:12:05;21.20;99.90
39277;DHT22;24981;48.086;-1.686;2022-07-23T10:14:50;21.10;99.90
39277;DHT22;24981;48.086;-1.686;2022-07-23T10:17:18;21.00;99.90
39277;DHT22;24981;48.086;-1.686;2022-07-23T10:19:45;21.00;99.90
39277;DHT22;24981;48.086;-1.686;2022-07-23T10:22:19;21.00;99.90
39277;DHT22;24981;48.086;-1.686;2022-07-23T10:24:55;20.90;99.90
39277;DHT22;24981;48.086;-1.686;2022-07-23T10:27:42;20.90;99.90
39277;DHT22;24981;48.086;-1.686;2022-07-23T10:30:16;20.90;99.90
39277;DHT22;24981;48.086;-1.686;2022-07-23T10:32:59;20.90;99.90
39277;DHT22;24981;48.086;-1.686;2022-07-23T10:35:38;21.00;99.90
39277;DHT22;24981;48.086;-1.686;2022-07-23T10:38:12;21.00;99.90
39277;DHT22;24981;48.086;-1.686;2022-07-23T10:40:54;21.10;99.90
39277;DHT22;24981;48.086;-1.686;2022-07-23T10:43:22;21.20;99.90
39277;DHT22;24981;48.086;-1.686;2022-07-23T10:45:50;21.40;99.90
39277;DHT22;24981;48.086;-1.686;2022-07-23T10:48:19;21.40;99.90
39277;DHT22;24981;48.086;-1.686;2022-07-23T10:54:00;21.50;99.90
39277;DHT22;24981;48.086;-1.686;2022-07-23T10:59:24;21.60;99.90
39277;DHT22;24981;48.086;-1.686;2022-07-23T11:01:51;21.70;99.90
39277;DHT22;24981;48.086;-1.686;2022-07-23T11:04:19;21.90;99.90
39277;DHT22;24981;48.086;-1.686;2022-07-23T11:09:45;21.80;99.90
39277;DHT22;24981;48.086;-1.686;2022-07-23T11:15:11;22.00;99.90
39277;DHT22;24981;48.086;-1.686;2022-07-23T11:17:59;22.00;99.90
39277;DHT22;24981;48.086;-1.686;2022-07-23T11:20:27;22.20;99.90
39277;DHT22;24981;48.086;-1.686;2022-07-23T11:22:56;22.30;99.90
39277;DHT22;24981;48.086;-1.686;2022-07-23T11:25:41;22.40;99.90
39277;DHT22;24981;48.086;-1.686;2022-07-23T11:28:11;22.50;99.90
39277;DHT22;24981;48.086;-1.686;2022-07-23T11:30:41;22.50;99.90
39277;DHT22;24981;48.086;-1.686;2022-07-23T11:33:24;22.50;99.90
39277;DHT22;24981;48.086;-1.686;2022-07-23T11:36:01;22.50;99.90
39277;DHT22;24981;48.086;-1.686;2022-07-23T11:38:31;22.50;99.90
39277;DHT22;24981;48.086;-1.686;2022-07-23T11:41:01;22.50;99.90
39277;DHT22;24981;48.086;-1.686;2022-07-23T11:43:28;22.50;99.90
39277;DHT22;24981;48.086;-1.686;2022-07-23T11:45:58;22.50;99.90
39277;DHT22;24981;48.086;-1.686;2022-07-23T11:48:28;22.60;99.90
39277;DHT22;24981;48.086;-1.686;2022-07-23T11:50:56;22.70;99.90
39277;DHT22;24981;48.086;-1.686;2022-07-23T11:53:24;22.90;99.90
39277;DHT22;24981;48.086;-1.686;2022-07-23T11:55:52;23.00;99.90
39277;DHT22;24981;48.086;-1.686;2022-07-23T11:58:21;22.90;99.90
39277;DHT22;24981;48.086;-1.686;2022-07-23T12:00:49;22.90;99.90
39277;DHT22;24981;48.086;-1.686;2022-07-23T12:03:18;23.00;99.90
39277;DHT22;24981;48.086;-1.686;2022-07-23T12:05:46;23.10;99.90
39277;DHT22;24981;48.086;-1.686;2022-07-23T12:08:13;23.20;99.90
39277;DHT22;24981;48.086;-1.686;2022-07-23T12:10:41;23.20;99.90
39277;DHT22;24981;48.086;-1.686;2022-07-23T12:13:11;23.40;99.90
39277;DHT22;24981;48.086;-1.686;2022-07-23T12:15:43;23.50;99.90
39277;DHT22;24981;48.086;-1.686;2022-07-23T12:18:13;23.50;99.90
39277;DHT22;24981;48.086;-1.686;2022-07-23T12:20:42;23.70;99.90
39277;DHT22;24981;48.086;-1.686;2022-07-23T12:23:13;23.80;99.90
39277;DHT22;24981;48.086;-1.686;2022-07-23T12:25:43;23.80;99.90
39277;DHT22;24981;48.086;-1.686;2022-07-23T12:28:13;23.90;99.90
39277;DHT22;24981;48.086;-1.686;2022-07-23T12:30:43;24.00;99.90
39277;DHT22;24981;48.086;-1.686;2022-07-23T12:33:13;24.10;99.90
39277;DHT22;24981;48.086;-1.686;2022-07-23T12:35:44;24.10;99.90
39277;DHT22;24981;48.086;-1.686;2022-07-23T12:38:13;24.10;99.90
39277;DHT22;24981;48.086;-1.686;2022-07-23T12:40:44;24.20;99.90
39277;DHT22;24981;48.086;-1.686;2022-07-23T12:43:20;24.20;99.90
39277;DHT22;24981;48.086;-1.686;2022-07-23T12:45:51;24.20;99.90
39277;DHT22;24981;48.086;-1.686;2022-07-23T12:48:22;24.40;99.90
39277;DHT22;24981;48.086;-1.686;2022-07-23T12:50:55;24.40;99.90
39277;DHT22;24981;48.086;-1.686;2022-07-23T12:53:25;24.30;99.90
39277;DHT22;24981;48.086;-1.686;2022-07-23T12:56:08;24.20;99.90
39277;DHT22;24981;48.086;-1.686;2022-07-23T12:58:51;24.30;99.90
39277;DHT22;24981;48.086;-1.686;2022-07-23T13:01:35;24.30;99.90
39277;DHT22;24981;48.086;-1.686;2022-07-23T13:04:05;24.40;99.90
39277;DHT22;24981;48.086;-1.686;2022-07-23T13:06:34;24.40;99.90
39277;DHT22;24981;48.086;-1.686;2022-07-23T13:09:04;24.50;99.90
39277;DHT22;24981;48.086;-1.686;2022-07-23T13:11:32;24.50;99.90
39277;DHT22;24981;48.086;-1.686;2022-07-23T13:14:00;24.70;99.90
39277;DHT22;24981;48.086;-1.686;2022-07-23T13:16:28;24.90;99.90
39277;DHT22;24981;48.086;-1.686;2022-07-23T13:18:58;25.10;99.90
39277;DHT22;24981;48.086;-1.686;2022-07-23T13:21:27;25.30;99.90
39277;DHT22;24981;48.086;-1.686;2022-07-23T13:23:54;25.60;99.90
39277;DHT22;24981;48.086;-1.686;2022-07-23T13:26:22;25.70;99.90
39277;DHT22;24981;48.086;-1.686;2022-07-23T13:28:49;26.00;99.90
39277;DHT22;24981;48.086;-1.686;2022-07-23T13:31:17;26.30;99.90
39277;DHT22;24981;48.086;-1.686;2022-07-23T13:33:45;27.00;99.90
39277;DHT22;24981;48.086;-1.686;2022-07-23T13:36:14;27.60;99.70
39277;DHT22;24981;48.086;-1.686;2022-07-23T13:38:41;28.50;98.00
39277;DHT22;24981;48.086;-1.686;2022-07-23T13:41:08;29.00;93.20
39277;DHT22;24981;48.086;-1.686;2022-07-23T13:43:36;30.20;91.40
39277;DHT22;24981;48.086;-1.686;2022-07-23T13:46:04;31.90;86.00
39277;DHT22;24981;48.086;-1.686;2022-07-23T13:48:31;34.00;76.90
39277;DHT22;24981;48.086;-1.686;2022-07-23T13:50:58;35.50;65.70
39277;DHT22;24981;48.086;-1.686;2022-07-23T13:53:27;37.00;57.70
39277;DHT22;24981;48.086;-1.686;2022-07-23T13:55:54;37.70;54.00
39277;DHT22;24981;48.086;-1.686;2022-07-23T13:58:23;38.70;49.80
39277;DHT22;24981;48.086;-1.686;2022-07-23T14:00:52;40.10;46.70
39277;DHT22;24981;48.086;-1.686;2022-07-23T14:03:21;40.90;44.50
39277;DHT22;24981;48.086;-1.686;2022-07-23T14:05:50;41.30;42.30
39277;DHT22;24981;48.086;-1.686;2022-07-23T14:08:17;42.50;38.90
39277;DHT22;24981;48.086;-1.686;2022-07-23T14:10:46;42.30;38.00
39277;DHT22;24981;48.086;-1.686;2022-07-23T14:13:13;41.60;37.40
39277;DHT22;24981;48.086;-1.686;2022-07-23T14:15:41;41.20;38.60
39277;DHT22;24981;48.086;-1.686;2022-07-23T14:18:08;41.90;38.60
39277;DHT22;24981;48.086;-1.686;2022-07-23T14:20:35;43.00;35.90
39277;DHT22;24981;48.086;-1.686;2022-07-23T14:23:03;43.10;35.40
39277;DHT22;24981;48.086;-1.686;2022-07-23T14:25:30;43.20;34.60
39277;DHT22;24981;48.086;-1.686;2022-07-23T14:27:59;44.10;33.50
39277;DHT22;24981;48.086;-1.686;2022-07-23T14:30:26;43.60;33.10
39277;DHT22;24981;48.086;-1.686;2022-07-23T14:32:53;43.20;33.20
39277;DHT22;24981;48.086;-1.686;2022-07-23T14:35:21;41.00;33.90
39277;DHT22;24981;48.086;-1.686;2022-07-23T14:37:49;41.70;34.00
39277;DHT22;24981;48.086;-1.686;2022-07-23T14:40:17;43.10;34.40
39277;DHT22;24981;48.086;-1.686;2022-07-23T14:42:45;42.00;33.00
39277;DHT22;24981;48.086;-1.686;2022-07-23T14:45:13;43.50;32.90
39277;DHT22;24981;48.086;-1.686;2022-07-23T14:47:41;42.50;31.90
39277;DHT22;24981;48.086;-1.686;2022-07-23T14:50:09;43.60;32.00
39277;DHT22;24981;48.086;-1.686;2022-07-23T14:52:36;41.50;32.90
39277;DHT22;24981;48.086;-1.686;2022-07-23T14:55:04;41.80;33.50
39277;DHT22;24981;48.086;-1.686;2022-07-23T14:57:31;42.40;32.20
39277;DHT22;24981;48.086;-1.686;2022-07-23T15:00:00;44.90;32.10
39277;DHT22;24981;48.086;-1.686;2022-07-23T15:02:29;46.10;30.80
39277;DHT22;24981;48.086;-1.686;2022-07-23T15:04:56;47.10;29.50
39277;DHT22;24981;48.086;-1.686;2022-07-23T15:07:27;45.80;28.70
39277;DHT22;24981;48.086;-1.686;2022-07-23T15:09:55;46.00;29.00
39277;DHT22;24981;48.086;-1.686;2022-07-23T15:12:22;46.90;28.60
39277;DHT22;24981;48.086;-1.686;2022-07-23T15:14:49;47.70;28.00
39277;DHT22;24981;48.086;-1.686;2022-07-23T15:17:17;47.70;27.50
39277;DHT22;24981;48.086;-1.686;2022-07-23T15:19:45;47.20;27.40
39277;DHT22;24981;48.086;-1.686;2022-07-23T15:22:13;48.70;27.30
39277;DHT22;24981;48.086;-1.686;2022-07-23T15:24:40;47.80;27.40
39277;DHT22;24981;48.086;-1.686;2022-07-23T15:27:07;44.80;28.50
39277;DHT22;24981;48.086;-1.686;2022-07-23T15:29:35;45.70;28.20
39277;DHT22;24981;48.086;-1.686;2022-07-23T15:32:02;46.30;28.00
39277;DHT22;24981;48.086;-1.686;2022-07-23T15:34:30;47.70;27.60
39277;DHT22;24981;48.086;-1.686;2022-07-23T15:37:01;47.90;26.60